createdAt,value
2023-05-19T00:00:29.788Z,25.88
2023-05-19T00:03:01.729Z,30.15
2023-05-19T00:05:31.727Z,29.75
2023-05-19T00:08:04.405Z,24.90
2023-05-19T00:10:34.333Z,26.75
2023-05-19T00:13:04.189Z,23.52
2023-05-19T00:15:33.985Z,25.95
2023-05-19T00:18:03.870Z,25.92
2023-05-19T00:20:33.645Z,27.17
2023-05-19T00:23:03.515Z,21.75
2023-05-19T00:25:32.711Z,28.08
2023-05-19T00:28:03.768Z,24.52
2023-05-19T00:30:33.579Z,26.95
2023-05-19T00:33:02.997Z,29.45
2023-05-19T00:35:32.540Z,26.77
2023-05-19T00:38:01.828Z,28.05
2023-05-19T00:40:33.123Z,22.83
2023-05-19T00:43:02.571Z,26.42
2023-05-19T00:45:32.170Z,24.40
2023-05-19T00:48:01.513Z,20.08
2023-05-19T00:50:31.437Z,22.10
2023-05-19T00:53:00.935Z,22.63
2023-05-19T00:55:32.640Z,27.73
2023-05-19T00:58:02.923Z,24.23
2023-05-19T01:00:33.495Z,25.05
2023-05-19T01:03:04.078Z,21.45
2023-05-19T01:05:33.722Z,31.67
2023-05-19T01:08:02.985Z,31.05
2023-05-19T01:10:32.574Z,32.15
2023-05-19T01:13:03.748Z,31.02
2023-05-19T01:15:41.834Z,27.45
2023-05-19T01:18:18.183Z,32.30
2023-05-19T01:21:00.378Z,35.67
2023-05-19T01:23:55.513Z,36.22
2023-05-19T01:26:51.217Z,34.63
2023-05-19T01:30:05.005Z,31.65
2023-05-19T01:32:36.130Z,27.63
2023-05-19T01:35:07.963Z,30.90
2023-05-19T01:37:40.518Z,27.17
2023-05-19T01:40:12.718Z,28.15
2023-05-19T01:42:43.142Z,34.70
2023-05-19T01:45:14.600Z,29.52
2023-05-19T01:47:46.345Z,30.75
2023-05-19T01:50:16.427Z,32.53
2023-05-19T01:52:45.658Z,29.00
2023-05-19T01:55:15.073Z,26.73
2023-05-19T01:58:02.962Z,29.48
2023-05-19T02:00:42.558Z,24.80
2023-05-19T02:03:17.777Z,33.00
2023-05-19T02:05:59.368Z,24.08
2023-05-19T02:08:34.319Z,32.53
2023-05-19T02:11:13.419Z,71.68
2023-05-19T02:13:51.021Z,72.55
2023-05-19T02:16:26.638Z,27.55
2023-05-19T02:18:58.409Z,28.48
2023-05-19T02:21:28.817Z,41.45
2023-05-19T02:23:57.993Z,25.98
2023-05-19T02:26:27.568Z,26.63
2023-05-19T02:28:56.878Z,30.25
2023-05-19T02:31:26.880Z,28.05
2023-05-19T02:33:58.201Z,28.15
2023-05-19T02:36:27.917Z,23.88
2023-05-19T02:38:57.253Z,37.45
2023-05-19T02:41:27.322Z,27.08
2023-05-19T02:43:57.197Z,26.50
2023-05-19T02:46:26.486Z,29.15
2023-05-19T02:48:56.529Z,40.58
2023-05-19T02:51:25.870Z,32.00
2023-05-19T02:53:55.258Z,34.92
2023-05-19T02:56:25.403Z,23.17
2023-05-19T02:58:55.463Z,24.80
2023-05-19T03:01:24.869Z,25.70
2023-05-19T03:03:54.436Z,28.50
2023-05-19T03:06:24.731Z,32.45
2023-05-19T03:08:54.088Z,28.50
2023-05-19T03:11:24.345Z,31.05
2023-05-19T03:13:54.471Z,32.75
2023-05-19T03:16:23.689Z,37.15
2023-05-19T03:18:53.553Z,31.15
2023-05-19T03:21:22.963Z,46.22
2023-05-19T03:23:52.600Z,36.55
2023-05-19T03:26:24.316Z,38.85
2023-05-19T03:28:53.991Z,37.60
2023-05-19T03:31:24.201Z,46.70
2023-05-19T03:33:53.550Z,45.13
2023-05-19T03:36:23.949Z,37.72
2023-05-19T03:38:53.702Z,42.33
2023-05-19T03:41:23.364Z,41.30
2023-05-19T03:43:53.296Z,42.08
2023-05-19T03:46:25.997Z,45.13
2023-05-19T03:49:25.418Z,36.65
2023-05-19T03:52:14.031Z,33.25
2023-05-19T03:54:57.114Z,40.95
2023-05-19T03:57:26.544Z,33.78
2023-05-19T03:59:55.999Z,42.80
2023-05-19T04:02:25.524Z,42.70
2023-05-19T04:04:55.354Z,39.17
2023-05-19T04:07:24.869Z,31.77
2023-05-19T04:09:54.273Z,31.27
2023-05-19T04:12:23.797Z,28.55
2023-05-19T04:14:55.182Z,32.10
2023-05-19T04:17:30.361Z,46.13
2023-05-19T04:20:00.296Z,48.13
2023-05-19T04:22:30.552Z,32.95
2023-05-19T04:25:01.372Z,30.75
2023-05-19T04:27:32.999Z,25.83
2023-05-19T04:30:02.368Z,29.08
2023-05-19T04:32:32.695Z,30.20
2023-05-19T04:35:09.449Z,26.52
2023-05-19T04:37:40.311Z,24.20
2023-05-19T04:40:12.201Z,19.75
2023-05-19T04:42:44.224Z,21.50
2023-05-19T04:45:15.041Z,22.90
2023-05-19T04:47:49.365Z,22.92
2023-05-19T04:50:18.737Z,25.30
2023-05-19T04:52:47.946Z,23.42
2023-05-19T04:55:18.426Z,18.10
2023-05-19T04:57:49.193Z,24.27
2023-05-19T05:00:20.031Z,24.08
2023-05-19T05:03:00.785Z,21.75
2023-05-19T05:05:33.094Z,19.77
2023-05-19T05:08:03.103Z,18.35
2023-05-19T05:10:37.986Z,18.52
2023-05-19T05:13:09.972Z,20.65
2023-05-19T05:15:42.074Z,17.05
2023-05-19T05:18:13.220Z,20.70
2023-05-19T05:20:44.814Z,24.67
2023-05-19T05:23:17.958Z,15.35
2023-05-19T05:25:49.889Z,21.35
2023-05-19T05:28:21.264Z,19.02
2023-05-19T05:30:51.346Z,17.33
2023-05-19T05:33:20.857Z,22.35
2023-05-19T05:35:51.650Z,13.88
2023-05-19T05:38:23.779Z,14.05
2023-05-19T05:40:56.223Z,20.65
2023-05-19T05:43:25.698Z,14.88
2023-05-19T05:46:00.390Z,17.05
2023-05-19T05:48:30.120Z,13.30
2023-05-19T05:51:01.601Z,13.65
2023-05-19T05:53:38.470Z,10.23
2023-05-19T05:56:09.770Z,13.73
2023-05-19T05:58:47.730Z,18.38
2023-05-19T06:01:19.023Z,13.70
2023-05-19T06:03:48.447Z,19.55
2023-05-19T06:06:22.558Z,10.73
2023-05-19T06:08:53.662Z,14.57
2023-05-19T06:11:24.719Z,14.90
2023-05-19T06:13:55.863Z,13.23
2023-05-19T06:17:03.728Z,10.82
2023-05-19T06:19:33.895Z,13.70
2023-05-19T06:22:03.323Z,11.77
2023-05-19T06:24:33.290Z,8.38
2023-05-19T06:27:02.682Z,14.68
2023-05-19T06:29:32.168Z,8.80
2023-05-19T06:32:05.028Z,8.73
2023-05-19T06:34:34.646Z,12.00
2023-05-19T06:37:04.190Z,12.95
2023-05-19T06:39:35.663Z,9.90
2023-05-19T06:42:05.404Z,13.57
2023-05-19T06:44:57.980Z,11.65
2023-05-19T06:47:28.465Z,14.73
2023-05-19T06:49:59.087Z,14.60
2023-05-19T06:52:32.360Z,13.50
2023-05-19T06:55:04.057Z,10.77
2023-05-19T06:57:35.322Z,13.38
2023-05-19T07:00:08.109Z,8.40
2023-05-19T07:02:37.955Z,8.73
2023-05-19T07:05:09.443Z,11.10
2023-05-19T07:07:39.035Z,7.22
2023-05-19T07:10:13.531Z,9.88
2023-05-19T07:12:43.163Z,9.07
2023-05-19T07:15:12.968Z,7.70
2023-05-19T07:17:42.953Z,8.38
2023-05-19T07:20:13.354Z,9.90
2023-05-19T07:22:42.757Z,8.88
2023-05-19T07:25:11.993Z,8.68
2023-05-19T07:27:42.512Z,7.88
2023-05-19T07:30:12.256Z,9.32
2023-05-19T07:32:42.402Z,10.98
2023-05-19T07:35:11.687Z,8.93
2023-05-19T07:37:41.354Z,6.22
2023-05-19T07:40:11.542Z,9.43
2023-05-19T07:42:40.883Z,10.25
2023-05-19T07:45:10.957Z,8.60
2023-05-19T07:47:40.462Z,5.22
2023-05-19T07:50:10.183Z,13.20
2023-05-19T07:52:40.105Z,13.38
2023-05-19T07:55:09.416Z,13.00
2023-05-19T07:57:39.210Z,10.52
2023-05-19T08:00:12.903Z,10.05
2023-05-19T08:02:43.462Z,11.48
2023-05-19T08:05:13.052Z,9.80
2023-05-19T08:07:42.576Z,6.13
2023-05-19T08:10:11.920Z,9.07
2023-05-19T08:12:41.250Z,11.15
2023-05-19T08:15:12.721Z,10.75
2023-05-19T08:17:42.234Z,10.25
2023-05-19T08:20:15.269Z,8.63
2023-05-19T08:22:45.170Z,16.20
2023-05-19T08:25:14.974Z,10.30
2023-05-19T08:27:44.308Z,9.88
2023-05-19T08:30:14.258Z,6.70
2023-05-19T08:32:43.817Z,11.55
2023-05-19T08:35:13.054Z,8.35
2023-05-19T08:37:42.531Z,8.73
2023-05-19T08:40:20.122Z,7.25
2023-05-19T08:42:50.430Z,11.57
2023-05-19T08:45:19.905Z,11.38
2023-05-19T08:47:50.703Z,7.82
2023-05-19T08:50:30.181Z,10.75
2023-05-19T08:53:07.186Z,10.07
2023-05-19T08:55:54.349Z,7.88
2023-05-19T08:58:24.739Z,14.45
2023-05-19T09:00:55.322Z,9.93
2023-05-19T09:03:27.696Z,7.68
2023-05-19T09:05:57.063Z,11.07
2023-05-19T09:08:26.428Z,8.90
2023-05-19T09:10:55.829Z,11.25
2023-05-19T09:13:25.699Z,14.38
2023-05-19T09:15:55.343Z,14.18
2023-05-19T09:18:29.416Z,6.85
2023-05-19T09:21:06.290Z,9.60
2023-05-19T09:23:36.077Z,12.57
2023-05-19T09:26:10.024Z,5.05
2023-05-19T09:28:39.618Z,14.07
2023-05-19T09:31:10.484Z,8.68
2023-05-19T09:33:44.313Z,10.20
2023-05-19T09:36:15.667Z,7.97
2023-05-19T09:38:47.295Z,13.95
2023-05-19T09:41:17.472Z,13.77
2023-05-19T09:43:57.541Z,10.93
2023-05-19T09:46:34.235Z,7.68
2023-05-19T09:49:14.163Z,12.40
2023-05-19T09:51:43.938Z,12.48
2023-05-19T09:54:19.775Z,9.88
2023-05-19T09:56:58.554Z,10.48
2023-05-19T09:59:32.286Z,11.95
2023-05-19T10:02:03.708Z,8.90
2023-05-19T10:04:33.528Z,8.32
2023-05-19T10:07:06.565Z,10.15
2023-05-19T10:09:39.733Z,6.82
2023-05-19T10:12:13.231Z,9.48
2023-05-19T10:14:42.937Z,17.50
2023-05-19T10:17:13.736Z,15.07
2023-05-19T10:19:45.963Z,16.15
2023-05-19T10:22:15.679Z,10.02
2023-05-19T10:24:53.106Z,9.45
2023-05-19T10:27:24.005Z,11.65
2023-05-19T10:29:56.456Z,12.30
2023-05-19T10:32:30.989Z,10.75
2023-05-19T10:35:19.201Z,6.25
2023-05-19T10:38:01.139Z,11.48
2023-05-19T10:40:42.964Z,12.00
2023-05-19T10:43:13.007Z,15.10
2023-05-19T10:45:55.001Z,12.38
2023-05-19T10:48:24.826Z,11.70
2023-05-19T10:50:58.675Z,15.68
2023-05-19T10:53:36.338Z,8.68
2023-05-19T10:56:08.118Z,13.20
2023-05-19T10:58:46.929Z,14.65
2023-05-19T11:01:25.878Z,15.15
2023-05-19T11:03:58.376Z,10.27
2023-05-19T11:06:33.216Z,10.55
2023-05-19T11:09:13.012Z,11.05
2023-05-19T11:11:56.316Z,10.93
2023-05-19T11:14:28.712Z,19.17
2023-05-19T11:17:00.444Z,15.45
2023-05-19T11:19:39.345Z,9.93
2023-05-19T11:22:14.141Z,15.98
2023-05-19T11:24:54.574Z,18.95
2023-05-19T11:27:34.869Z,9.18
2023-05-19T11:30:11.024Z,11.73
2023-05-19T11:32:43.396Z,15.02
2023-05-19T11:35:14.038Z,14.50
2023-05-19T11:37:44.534Z,17.52
2023-05-19T11:40:16.936Z,15.15
2023-05-19T11:42:46.702Z,11.93
2023-05-19T11:45:16.087Z,15.18
2023-05-19T11:48:01.178Z,14.45
2023-05-19T11:50:33.558Z,12.93
2023-05-19T11:53:03.332Z,16.30
2023-05-19T11:55:33.820Z,13.18
2023-05-19T11:58:05.869Z,10.50
2023-05-19T12:00:46.934Z,12.07
2023-05-19T12:03:16.889Z,17.17
2023-05-19T12:05:47.957Z,16.25
2023-05-19T12:08:22.785Z,15.67
2023-05-19T12:10:53.713Z,9.50
2023-05-19T12:13:24.592Z,12.80
2023-05-19T12:15:54.587Z,14.88
2023-05-19T12:18:29.031Z,13.30
2023-05-19T12:20:58.621Z,18.40
2023-05-19T12:23:31.922Z,14.10
2023-05-19T12:26:02.293Z,18.02
2023-05-19T12:28:35.074Z,11.65
2023-05-19T12:31:04.670Z,11.63
2023-05-19T12:33:36.008Z,12.32
2023-05-19T12:36:06.912Z,12.65
2023-05-19T12:38:38.487Z,11.32
2023-05-19T12:41:08.317Z,19.38
2023-05-19T12:43:38.822Z,15.57
2023-05-19T12:46:15.360Z,14.13
2023-05-19T12:48:45.991Z,17.00
2023-05-19T12:51:21.839Z,18.95
2023-05-19T12:53:53.037Z,21.02
2023-05-19T12:56:23.368Z,12.35
2023-05-19T12:58:59.571Z,18.30
2023-05-19T13:01:32.548Z,12.50
2023-05-19T13:06:35.958Z,14.85
2023-05-19T13:09:05.358Z,14.65
2023-05-19T13:11:34.944Z,18.27
2023-05-19T13:14:04.357Z,20.67
2023-05-19T13:16:34.606Z,11.05
2023-05-19T13:19:06.197Z,25.10
2023-05-19T13:21:36.876Z,19.60
2023-05-19T13:24:06.731Z,27.15
2023-05-19T13:26:36.195Z,25.85
2023-05-19T13:29:05.786Z,14.50
2023-05-19T13:31:35.356Z,12.27
2023-05-19T13:34:05.598Z,25.88
2023-05-19T13:36:36.204Z,10.82
2023-05-19T13:39:06.531Z,21.17
2023-05-19T13:41:36.911Z,14.50
2023-05-19T13:44:06.054Z,19.30
2023-05-19T13:46:44.926Z,22.27
2023-05-19T13:49:15.845Z,21.25
2023-05-19T13:51:45.568Z,20.42
2023-05-19T13:54:14.796Z,19.95
2023-05-19T13:56:45.951Z,14.07
2023-05-19T13:59:15.448Z,27.52
2023-05-19T14:01:46.698Z,15.05
2023-05-19T14:04:19.686Z,26.40
2023-05-19T14:06:49.839Z,19.38
2023-05-19T14:09:19.031Z,24.05
2023-05-19T14:11:49.459Z,22.92
2023-05-19T14:14:19.257Z,25.80
2023-05-19T14:16:48.826Z,25.50
2023-05-19T14:19:18.329Z,21.33
2023-05-19T14:21:51.093Z,22.63
2023-05-19T14:24:21.286Z,19.02
2023-05-19T14:26:51.112Z,19.27
2023-05-19T14:29:21.201Z,20.75
2023-05-19T14:31:50.716Z,19.38
2023-05-19T14:34:22.119Z,22.70
2023-05-19T14:36:52.174Z,22.55
2023-05-19T14:39:21.809Z,22.80
2023-05-19T14:41:53.145Z,21.08
2023-05-19T14:44:22.619Z,21.90
2023-05-19T14:46:51.992Z,21.33
2023-05-19T14:49:21.453Z,24.13
2023-05-19T14:51:50.787Z,17.38
2023-05-19T14:54:20.414Z,21.02
2023-05-19T14:56:49.856Z,25.23
2023-05-19T14:59:19.840Z,20.20
2023-05-19T15:01:49.108Z,31.08
2023-05-19T15:04:18.932Z,20.42
2023-05-19T15:06:55.029Z,15.57
2023-05-19T15:09:35.066Z,19.00
2023-05-19T15:12:04.443Z,23.35
2023-05-19T15:14:34.608Z,16.20
2023-05-19T15:17:04.051Z,25.05
2023-05-19T15:19:33.853Z,19.77
2023-05-19T15:22:03.590Z,17.17
2023-05-19T15:24:32.915Z,20.65
2023-05-19T15:27:03.141Z,26.40
2023-05-19T15:29:32.754Z,25.20
2023-05-19T15:32:02.141Z,20.65
2023-05-19T15:34:35.898Z,26.80
2023-05-19T15:37:06.001Z,15.88
2023-05-19T15:39:36.014Z,24.80
2023-05-19T15:42:05.736Z,22.08
2023-05-19T15:44:35.187Z,18.88
2023-05-19T15:47:04.965Z,35.38
2023-05-19T15:49:34.554Z,15.98
2023-05-19T15:52:04.873Z,18.30
2023-05-19T15:54:34.349Z,30.20
2023-05-19T15:57:03.533Z,20.98
2023-05-19T15:59:33.721Z,24.73
2023-05-19T16:02:03.706Z,26.23
2023-05-19T16:04:33.049Z,19.67
2023-05-19T16:07:02.490Z,25.95
2023-05-19T16:09:31.776Z,22.70
2023-05-19T16:12:01.516Z,21.80
2023-05-19T16:14:34.507Z,27.70
2023-05-19T16:17:12.426Z,22.40
2023-05-19T16:19:42.224Z,28.65
2023-05-19T16:22:11.820Z,27.30
2023-05-19T16:24:41.267Z,29.23
2023-05-19T16:27:11.335Z,18.50
2023-05-19T16:29:41.322Z,18.98
2023-05-19T16:32:10.655Z,26.80
2023-05-19T16:34:40.170Z,19.98
2023-05-19T16:37:09.504Z,24.70
2023-05-19T16:39:38.820Z,24.00
2023-05-19T16:42:08.316Z,21.48
2023-05-19T16:44:37.619Z,18.33
2023-05-19T16:47:07.920Z,21.75
2023-05-19T16:49:37.351Z,19.23
2023-05-19T16:52:06.995Z,17.90
2023-05-19T16:54:36.804Z,22.98
2023-05-19T16:57:06.925Z,23.20
2023-05-19T16:59:36.404Z,20.45
2023-05-19T17:02:06.059Z,21.35
2023-05-19T17:04:35.963Z,22.20
2023-05-19T17:07:06.047Z,27.50
2023-05-19T17:09:35.670Z,21.63
2023-05-19T17:12:05.887Z,22.52
2023-05-19T17:14:36.111Z,25.17
2023-05-19T17:17:06.318Z,22.45
2023-05-19T17:19:36.969Z,21.15
2023-05-19T17:22:06.794Z,29.52
2023-05-19T17:24:36.253Z,19.05
2023-05-19T17:27:07.067Z,15.73
2023-05-19T17:29:37.326Z,30.00
2023-05-19T17:32:07.527Z,21.17
2023-05-19T17:34:37.263Z,22.27
2023-05-19T17:37:07.778Z,29.73
2023-05-19T17:39:37.725Z,30.55
2023-05-19T17:42:08.961Z,28.40
2023-05-19T17:44:39.295Z,29.35
2023-05-19T17:47:09.516Z,20.67
2023-05-19T17:49:41.533Z,35.47
2023-05-19T17:52:12.156Z,38.22
2023-05-19T17:54:42.330Z,28.52
2023-05-19T17:57:16.488Z,35.03
2023-05-19T17:59:46.932Z,25.95
2023-05-19T18:02:16.960Z,23.00
2023-05-19T18:04:47.450Z,32.58
2023-05-19T18:07:17.982Z,27.33
2023-05-19T18:09:49.133Z,25.75
2023-05-19T18:12:19.641Z,31.13
2023-05-19T18:14:49.618Z,34.42
2023-05-19T18:17:19.392Z,28.65
2023-05-19T18:19:50.977Z,34.50
2023-05-19T18:22:20.946Z,36.33
2023-05-19T18:24:51.052Z,46.25
2023-05-19T18:27:21.626Z,54.47
2023-05-19T18:29:51.854Z,43.47
2023-05-19T18:32:22.231Z,46.75
2023-05-19T18:34:52.177Z,28.15
2023-05-19T18:37:22.335Z,32.42
2023-05-19T18:39:53.199Z,30.05
2023-05-19T18:42:23.639Z,31.52
2023-05-19T18:44:53.910Z,28.90
2023-05-19T18:47:24.481Z,32.80
2023-05-19T18:49:54.380Z,51.00
2023-05-19T18:52:24.115Z,39.58
2023-05-19T18:54:54.728Z,41.83
2023-05-19T18:57:24.881Z,37.47
2023-05-19T18:59:55.064Z,50.80
2023-05-19T19:02:24.676Z,45.38
2023-05-19T19:04:54.608Z,54.50
2023-05-19T19:07:27.996Z,50.72
2023-05-19T19:12:27.574Z,45.80
2023-05-19T19:14:57.738Z,53.90
2023-05-19T19:17:27.979Z,58.45
2023-05-19T19:19:57.727Z,65.82
2023-05-19T19:22:27.725Z,63.65
2023-05-19T19:24:57.162Z,59.88
2023-05-19T19:27:32.438Z,57.90
2023-05-19T19:30:02.902Z,51.22
2023-05-19T19:32:33.681Z,52.05
2023-05-19T19:35:03.314Z,56.92
2023-05-19T19:37:33.459Z,52.53
2023-05-19T19:40:03.171Z,49.63
2023-05-19T19:42:32.941Z,56.33
2023-05-19T19:45:02.691Z,41.80
2023-05-19T19:47:31.945Z,42.15
2023-05-19T19:50:03.825Z,43.92
2023-05-19T19:52:33.612Z,46.85
2023-05-19T19:55:03.638Z,49.03
2023-05-19T19:57:35.167Z,43.70
2023-05-19T20:00:09.434Z,40.90
2023-05-19T20:02:55.330Z,43.30
2023-05-19T20:05:29.838Z,46.55
2023-05-19T20:07:58.937Z,51.15
2023-05-19T20:10:29.024Z,54.40
2023-05-19T20:12:59.997Z,47.15
2023-05-19T20:15:29.619Z,44.65
2023-05-19T20:17:58.775Z,40.08
2023-05-19T20:20:28.505Z,48.13
2023-05-19T20:22:57.630Z,44.17
2023-05-19T20:25:27.332Z,35.13
2023-05-19T20:28:06.891Z,35.78
2023-05-19T20:30:36.808Z,40.75
2023-05-19T20:33:06.857Z,38.97
2023-05-19T20:35:36.399Z,48.92
2023-05-19T20:38:05.753Z,44.30
2023-05-19T20:40:35.239Z,32.53
2023-05-19T20:43:04.689Z,35.50
2023-05-19T20:45:34.945Z,34.40
2023-05-19T20:48:04.864Z,38.20
2023-05-19T20:50:34.263Z,36.35
2023-05-19T20:53:03.955Z,28.90
2023-05-19T20:55:33.476Z,34.10
2023-05-19T20:58:02.777Z,38.20
2023-05-19T21:00:32.765Z,34.30
2023-05-19T21:03:03.155Z,29.42
2023-05-19T21:05:33.095Z,32.70
2023-05-19T21:08:02.705Z,31.05
2023-05-19T21:10:32.331Z,31.58
2023-05-19T21:13:01.966Z,31.65
2023-05-19T21:15:31.375Z,28.05
2023-05-19T21:18:01.515Z,39.40
2023-05-19T21:20:30.944Z,36.22
2023-05-19T21:23:00.307Z,35.88
2023-05-19T21:25:29.592Z,27.70
2023-05-19T21:28:02.145Z,26.08
2023-05-19T21:30:31.845Z,26.27
2023-05-19T21:33:01.148Z,29.95
2023-05-19T21:35:30.424Z,31.42
2023-05-19T21:38:03.885Z,29.17
2023-05-19T21:40:39.143Z,29.50
2023-05-19T21:43:08.566Z,28.40
2023-05-19T21:45:38.996Z,23.73
2023-05-19T21:48:08.519Z,30.27
2023-05-19T21:50:38.786Z,33.67
2023-05-19T21:53:08.266Z,31.42
2023-05-19T21:55:37.438Z,26.60
2023-05-19T21:58:07.153Z,25.50
2023-05-19T22:00:37.647Z,34.40
2023-05-19T22:03:07.952Z,25.77
2023-05-19T22:05:39.157Z,26.35
2023-05-19T22:08:09.459Z,25.17
2023-05-19T22:10:38.900Z,32.85
2023-05-19T22:13:08.629Z,27.55
2023-05-19T22:15:38.912Z,22.42
2023-05-19T22:18:08.462Z,27.88
2023-05-19T22:20:38.501Z,30.83
2023-05-19T22:23:08.757Z,28.58
2023-05-19T22:25:37.976Z,32.72
2023-05-19T22:28:09.269Z,34.20
2023-05-19T22:30:41.301Z,31.95
2023-05-19T22:33:11.558Z,21.08
2023-05-19T22:35:41.422Z,26.48
2023-05-19T22:38:10.893Z,24.02
2023-05-19T22:40:40.692Z,28.15
2023-05-19T22:43:09.817Z,23.95
2023-05-19T22:45:39.366Z,28.52
2023-05-19T22:48:08.779Z,26.67
2023-05-19T22:50:38.070Z,31.05
2023-05-19T22:53:07.154Z,22.92
2023-05-19T22:55:36.781Z,26.30
2023-05-19T22:58:07.415Z,32.72
2023-05-19T23:00:38.072Z,29.98
2023-05-19T23:03:07.511Z,28.27
2023-05-19T23:05:36.529Z,28.85
2023-05-19T23:08:06.011Z,29.08
2023-05-19T23:10:35.033Z,20.10
2023-05-19T23:13:04.345Z,23.65
2023-05-19T23:15:33.917Z,25.60
2023-05-19T23:18:08.130Z,25.58
2023-05-19T23:20:37.624Z,28.75
2023-05-19T23:23:06.840Z,26.90
2023-05-19T23:25:36.376Z,29.80
2023-05-19T23:28:05.987Z,30.52
2023-05-19T23:30:38.742Z,27.63
2023-05-19T23:33:08.429Z,27.80
2023-05-19T23:35:37.836Z,33.15
2023-05-19T23:38:07.224Z,28.67
2023-05-19T23:40:36.952Z,39.78
2023-05-19T23:43:06.398Z,25.08
2023-05-19T23:45:36.433Z,29.45
2023-05-19T23:48:06.611Z,25.63
2023-05-19T23:50:36.083Z,38.38
2023-05-19T23:53:05.461Z,35.42
2023-05-19T23:55:34.787Z,30.30
2023-05-19T23:58:05.018Z,27.95
